createdAt,value
2018-06-12T00:01:10.369Z,50.54
2018-06-12T00:03:38.889Z,49.98
2018-06-12T00:06:07.205Z,51.09
2018-06-12T00:08:35.830Z,48.36
2018-06-12T00:13:31.525Z,49.70
2018-06-12T00:15:59.823Z,50.06
2018-06-12T00:18:28.117Z,49.51
2018-06-12T00:20:56.405Z,49.95
2018-06-12T00:23:24.730Z,50.31
2018-06-12T00:25:54.014Z,50.61
2018-06-12T00:28:22.339Z,50.75
2018-06-12T00:30:55.727Z,51.15
2018-06-12T00:33:24.005Z,51.44
2018-06-12T00:35:52.285Z,51.80
2018-06-12T00:38:21.117Z,51.89
2018-06-12T00:40:49.556Z,51.20
2018-06-12T00:43:17.866Z,51.18
2018-06-12T00:45:46.181Z,51.61
2018-06-12T00:48:14.497Z,51.89
2018-06-12T00:50:42.884Z,51.75
2018-06-12T00:53:11.321Z,51.70
2018-06-12T00:55:39.622Z,51.69
2018-06-12T00:58:07.920Z,51.06
2018-06-12T01:00:36.964Z,51.44
2018-06-12T01:03:05.239Z,51.43
2018-06-12T01:05:33.564Z,51.04
2018-06-12T01:08:02.227Z,51.61
2018-06-12T01:10:30.849Z,51.96
2018-06-12T01:13:00.935Z,50.86
2018-06-12T01:15:29.218Z,51.66
2018-06-12T01:17:57.487Z,51.20
2018-06-12T01:20:35.324Z,51.72
2018-06-12T01:23:03.995Z,51.00
2018-06-12T01:25:32.333Z,51.92
2018-06-12T01:28:00.617Z,52.02
2018-06-12T01:30:30.033Z,52.10
2018-06-12T01:32:59.409Z,52.25
2018-06-12T01:35:27.695Z,52.99
2018-06-12T01:37:55.992Z,52.83
2018-06-12T01:40:24.377Z,53.49
2018-06-12T01:42:52.679Z,53.53
2018-06-12T01:45:21.003Z,53.63
2018-06-12T01:47:49.343Z,53.85
2018-06-12T01:50:27.060Z,53.45
2018-06-12T01:52:55.481Z,53.36
2018-06-12T01:55:23.765Z,53.52
2018-06-12T01:57:52.198Z,54.14
2018-06-12T02:00:20.492Z,53.75
2018-06-12T02:02:48.785Z,53.56
2018-06-12T02:05:17.139Z,54.07
2018-06-12T02:07:45.449Z,53.63
2018-06-12T02:10:18.842Z,53.73
2018-06-12T02:12:47.425Z,54.15
2018-06-12T02:15:16.108Z,54.25
2018-06-12T02:17:44.462Z,54.74
2018-06-12T02:20:12.797Z,54.86
2018-06-12T02:22:41.385Z,55.03
2018-06-12T02:25:09.675Z,55.50
2018-06-12T02:27:38.041Z,55.15
2018-06-12T02:30:06.430Z,55.22
2018-06-12T02:32:34.749Z,55.29
2018-06-12T02:35:03.113Z,55.82
2018-06-12T02:37:31.447Z,55.86
2018-06-12T02:39:59.879Z,56.46
2018-06-12T02:42:28.222Z,56.15
2018-06-12T02:44:56.835Z,57.06
2018-06-12T02:47:25.123Z,56.42
2018-06-12T02:49:58.507Z,57.14
2018-06-12T02:52:27.048Z,57.69
2018-06-12T02:54:56.527Z,57.62
2018-06-12T02:57:25.091Z,57.68
2018-06-12T02:59:58.593Z,58.48
2018-06-12T03:02:27.053Z,58.78
2018-06-12T03:04:55.547Z,58.75
2018-06-12T03:07:24.032Z,56.45
2018-06-12T03:10:01.897Z,56.68
2018-06-12T03:12:30.525Z,57.78
2018-06-12T03:14:59.092Z,58.28
2018-06-12T03:17:27.651Z,58.81
2018-06-12T03:20:09.886Z,58.96
2018-06-12T03:22:38.343Z,58.94
2018-06-12T03:25:07.048Z,59.08
2018-06-12T03:27:35.771Z,59.35
2018-06-12T03:30:04.373Z,58.56
2018-06-12T03:32:33.855Z,58.98
2018-06-12T03:35:02.987Z,59.76
2018-06-12T03:37:32.365Z,60.43
2018-06-12T03:40:05.929Z,60.69
2018-06-12T03:42:34.779Z,60.23
2018-06-12T03:45:03.281Z,61.00
2018-06-12T03:47:32.113Z,61.30
2018-06-12T03:50:05.557Z,60.79
2018-06-12T03:52:33.852Z,61.60
2018-06-12T03:55:02.204Z,61.68
2018-06-12T03:57:30.835Z,61.24
2018-06-12T04:00:12.881Z,61.17
2018-06-12T04:02:41.269Z,61.74
2018-06-12T04:05:09.888Z,62.04
2018-06-12T04:07:38.230Z,61.43
2018-06-12T04:10:06.850Z,62.12
2018-06-12T04:12:35.159Z,61.73
2018-06-12T04:15:03.541Z,63.00
2018-06-12T04:17:32.399Z,62.80
2018-06-12T04:20:23.546Z,62.30
2018-06-12T04:22:51.824Z,62.76
2018-06-12T04:25:20.820Z,61.72
2018-06-12T04:27:49.158Z,62.31
2018-06-12T04:30:22.565Z,63.09
2018-06-12T04:32:50.897Z,62.84
2018-06-12T04:35:20.056Z,62.56
2018-06-12T04:37:48.351Z,63.64
2018-06-12T04:51:57.275Z,63.41
2018-06-12T04:54:25.617Z,62.83
2018-06-12T04:56:53.933Z,61.76
2018-06-12T04:59:22.341Z,62.31
2018-06-12T05:01:57.275Z,62.25
2018-06-12T05:04:25.681Z,62.29
2018-06-12T05:06:54.372Z,63.23
2018-06-12T05:09:23.187Z,63.29
2018-06-12T05:11:51.519Z,63.36
2018-06-12T05:14:20.387Z,63.85
2018-06-12T05:16:48.737Z,64.04
2018-06-12T05:19:22.070Z,63.81
2018-06-12T05:21:50.427Z,63.60
2018-06-12T05:24:18.687Z,63.81
2018-06-12T05:26:46.961Z,63.32
2018-06-12T05:29:15.246Z,62.93
2018-06-12T05:31:43.533Z,63.25
2018-06-12T05:34:12.040Z,63.65
2018-06-12T05:36:40.387Z,63.41
2018-06-12T05:39:10.940Z,63.34
2018-06-12T05:41:40.003Z,63.65
2018-06-12T05:44:08.301Z,63.39
2018-06-12T05:46:36.695Z,63.16
2018-06-12T05:49:05.290Z,62.84
2018-06-12T06:00:35.141Z,62.21
2018-06-12T06:03:03.523Z,62.41
2018-06-12T06:05:31.922Z,61.82
2018-06-12T06:08:00.301Z,62.77
2018-06-12T06:13:21.238Z,63.00
2018-06-12T06:15:49.729Z,63.93
2018-06-12T06:18:18.431Z,64.01
2018-06-12T06:20:46.812Z,63.74
2018-06-12T06:23:15.097Z,64.51
2018-06-12T06:25:43.365Z,64.54
2018-06-12T06:28:11.907Z,64.52
2018-06-12T06:30:40.317Z,64.03
2018-06-12T06:33:08.717Z,64.27
2018-06-12T06:35:37.475Z,64.19
2018-06-12T06:38:05.931Z,64.01
2018-06-12T06:40:47.987Z,63.65
2018-06-12T06:43:16.371Z,63.52
2018-06-12T06:45:44.826Z,63.99
2018-06-12T06:48:13.151Z,63.75
2018-06-12T06:50:41.687Z,63.39
2018-06-12T06:53:10.039Z,63.99
2018-06-12T06:55:38.403Z,63.58
2018-06-12T06:58:06.760Z,63.16
2018-06-12T07:00:36.740Z,62.96
2018-06-12T07:03:05.489Z,63.05
2018-06-12T07:05:35.257Z,63.29
2018-06-12T07:08:03.600Z,63.10
2018-06-12T07:10:37.281Z,63.59
2018-06-12T07:13:07.382Z,63.42
2018-06-12T07:15:36.864Z,63.52
2018-06-12T07:18:05.240Z,63.08
2018-06-12T07:20:49.198Z,62.39
2018-06-12T07:23:19.711Z,62.17
2018-06-12T07:25:48.480Z,62.33
2018-06-12T07:28:17.767Z,62.74
2018-06-12T07:30:46.615Z,62.43
2018-06-12T07:33:14.950Z,62.18
2018-06-12T07:35:43.265Z,62.18
2018-06-12T07:38:12.227Z,61.29
2018-06-12T07:40:41.099Z,61.57
2018-06-12T07:43:09.487Z,61.29
2018-06-12T07:45:37.839Z,62.21
2018-06-12T07:48:06.369Z,61.13
2018-06-12T07:50:48.624Z,61.56
2018-06-12T07:53:17.299Z,61.52
2018-06-12T07:55:46.064Z,61.75
2018-06-12T07:58:14.636Z,61.11
2018-06-12T08:00:43.549Z,60.98
2018-06-12T08:03:12.255Z,61.10
2018-06-12T08:05:40.669Z,61.19
2018-06-12T08:08:09.007Z,60.89
2018-06-12T08:10:37.617Z,60.60
2018-06-12T08:13:06.072Z,60.98
2018-06-12T08:15:34.606Z,61.38
2018-06-12T08:18:04.357Z,61.51
2018-06-12T08:20:32.739Z,60.97
2018-06-12T08:23:01.067Z,60.97
2018-06-12T08:25:29.597Z,60.72
2018-06-12T08:27:58.006Z,60.70
2018-06-12T08:30:31.594Z,59.57
2018-06-12T08:32:59.945Z,59.39
2018-06-12T08:35:28.279Z,58.99
2018-06-12T08:37:56.902Z,59.56
2018-06-12T08:40:30.331Z,59.29
2018-06-12T08:42:58.644Z,58.10
2018-06-12T08:45:26.948Z,58.41
2018-06-12T08:47:55.339Z,58.18
2018-06-12T08:53:38.976Z,59.23
2018-06-12T08:56:07.395Z,58.40
2018-06-12T08:58:35.736Z,59.08
2018-06-12T09:01:14.645Z,58.87
2018-06-12T09:03:43.136Z,58.65
2018-06-12T09:06:11.668Z,58.83
2018-06-12T09:08:40.176Z,58.45
2018-06-12T09:11:08.582Z,58.41
2018-06-12T09:13:37.023Z,58.62
2018-06-12T09:16:05.498Z,58.49
2018-06-12T09:18:34.195Z,58.63
2018-06-12T09:21:07.595Z,57.47
2018-06-12T09:23:36.061Z,57.70
2018-06-12T09:26:04.790Z,57.20
2018-06-12T09:28:33.259Z,57.37
2018-06-12T09:31:04.022Z,56.58
2018-06-12T09:33:33.191Z,56.11
2018-06-12T09:36:16.849Z,56.80
2018-06-12T09:38:48.119Z,56.02
2018-06-12T09:41:19.311Z,55.50
2018-06-12T09:43:49.454Z,55.76
2018-06-12T09:46:23.255Z,55.63
2018-06-12T09:48:52.490Z,55.23
2018-06-12T09:51:21.192Z,55.33
2018-06-12T09:53:50.427Z,55.65
2018-06-12T09:56:20.369Z,55.20
2018-06-12T09:58:49.318Z,55.33
2018-06-12T10:01:22.534Z,55.10
2018-06-12T10:03:52.947Z,53.54
2018-06-12T10:06:23.159Z,53.20
2018-06-12T10:08:51.937Z,53.02
2018-06-12T10:11:20.307Z,53.53
2018-06-12T10:13:48.974Z,52.54
2018-06-12T10:16:17.929Z,52.79
2018-06-12T10:18:47.172Z,52.16
2018-06-12T10:21:16.349Z,52.31
2018-06-12T10:23:45.693Z,52.83
2018-06-12T10:26:14.917Z,51.24
2018-06-12T10:28:43.881Z,50.75
2018-06-12T10:31:12.711Z,50.08
2018-06-12T10:33:41.682Z,50.04
2018-06-12T10:36:10.956Z,50.83
2018-06-12T10:38:39.363Z,50.31
2018-06-12T10:41:07.917Z,50.65
2018-06-12T10:43:36.506Z,51.01
2018-06-12T10:46:05.061Z,51.41
2018-06-12T10:48:34.225Z,50.99
2018-06-12T10:53:55.781Z,50.75
2018-06-12T10:56:24.413Z,50.25
2018-06-12T10:58:53.333Z,50.89
2018-06-12T11:01:22.867Z,49.14
2018-06-12T11:03:52.518Z,48.53
2018-06-12T11:06:21.572Z,48.11
2018-06-12T11:08:50.753Z,48.03
2018-06-12T11:11:19.413Z,48.68
2018-06-12T11:13:48.082Z,48.92
2018-06-12T11:16:16.401Z,48.69
2018-06-12T11:18:45.829Z,49.51
2018-06-12T11:21:24.509Z,49.54
2018-06-12T11:23:53.647Z,48.04
2018-06-12T11:26:23.127Z,48.25
2018-06-12T11:28:51.643Z,46.93
2018-06-12T11:31:21.359Z,46.26
2018-06-12T11:33:50.675Z,45.97
2018-06-12T11:36:19.085Z,45.40
2018-06-12T11:38:48.121Z,45.35
2018-06-12T11:41:16.847Z,45.44
2018-06-12T11:43:45.410Z,45.70
2018-06-12T11:46:14.046Z,45.57
2018-06-12T11:48:42.483Z,46.42
2018-06-12T11:51:24.507Z,45.63
2018-06-12T11:53:52.953Z,45.96
2018-06-12T11:56:21.746Z,45.77
2018-06-12T11:58:50.412Z,45.53
2018-06-12T12:01:19.811Z,45.72
2018-06-12T12:03:48.279Z,45.39
2018-06-12T12:06:16.984Z,45.08
2018-06-12T12:08:45.652Z,44.42
2018-06-12T12:11:24.853Z,42.43
2018-06-12T12:13:53.250Z,42.48
2018-06-12T12:16:21.919Z,43.41
2018-06-12T12:18:51.606Z,42.68
2018-06-12T12:21:21.635Z,42.12
2018-06-12T12:23:50.738Z,40.47
2018-06-12T12:26:19.778Z,39.81
2018-06-12T12:28:48.394Z,39.64
2018-06-12T12:31:17.142Z,39.13
2018-06-12T12:36:38.444Z,40.18
2018-06-12T12:39:09.202Z,40.55
2018-06-12T12:41:46.970Z,39.39
2018-06-12T12:44:16.221Z,39.26
2018-06-12T12:46:52.104Z,39.08
2018-06-12T12:49:22.090Z,39.31
2018-06-12T12:51:50.742Z,40.33
2018-06-12T12:54:24.922Z,40.22
2018-06-12T12:56:55.738Z,40.47
2018-06-12T12:59:27.136Z,40.77
2018-06-12T13:01:55.787Z,41.25
2018-06-12T13:04:24.622Z,41.84
2018-06-12T13:06:53.010Z,40.63
2018-06-12T13:09:21.974Z,42.61
2018-06-12T13:11:51.874Z,42.92
2018-06-12T13:14:21.776Z,42.91
2018-06-12T13:16:56.227Z,42.06
2018-06-12T13:19:24.820Z,41.81
2018-06-12T13:21:53.161Z,39.82
2018-06-12T13:24:21.493Z,39.71
2018-06-12T13:26:50.046Z,39.31
2018-06-12T13:29:19.381Z,38.40
2018-06-12T13:31:52.903Z,38.92
2018-06-12T13:34:22.042Z,37.59
2018-06-12T13:36:50.990Z,37.21
2018-06-12T13:39:19.703Z,37.72
2018-06-12T13:41:57.602Z,37.84
2018-06-12T13:44:26.223Z,37.56
2018-06-12T13:47:00.005Z,38.95
2018-06-12T13:49:30.565Z,38.39
2018-06-12T13:51:59.033Z,39.17
2018-06-12T13:54:28.341Z,39.06
2018-06-12T13:57:03.338Z,38.12
2018-06-12T13:59:45.619Z,38.19
2018-06-12T14:02:15.429Z,37.64
2018-06-12T14:04:43.755Z,36.94
2018-06-12T14:07:12.170Z,37.55
2018-06-12T14:09:45.684Z,37.40
2018-06-12T14:12:14.069Z,38.22
2018-06-12T14:14:42.427Z,38.90
2018-06-12T14:17:12.005Z,39.81
2018-06-12T14:19:46.050Z,38.93
2018-06-12T14:22:14.391Z,38.22
2018-06-12T14:24:42.773Z,38.41
2018-06-12T14:27:11.137Z,38.73
2018-06-12T14:29:39.645Z,39.69
2018-06-12T14:32:07.985Z,39.12
2018-06-12T14:34:36.809Z,40.40
2018-06-12T14:37:05.299Z,40.50
2018-06-12T14:39:33.679Z,40.97
2018-06-12T14:42:02.069Z,40.95
2018-06-12T14:44:30.325Z,41.62
2018-06-12T14:46:58.607Z,41.21
2018-06-12T14:49:26.889Z,41.03
2018-06-12T14:51:55.233Z,40.94
2018-06-12T14:54:23.826Z,41.10
2018-06-12T14:56:52.310Z,40.95
2018-06-12T14:59:20.695Z,41.68
2018-06-12T15:01:49.184Z,41.48
2018-06-12T15:04:17.582Z,41.27
2018-06-12T15:06:46.254Z,42.10
2018-06-12T15:09:15.051Z,41.31
2018-06-12T15:11:43.592Z,41.75
2018-06-12T15:14:11.961Z,42.34
2018-06-12T15:16:40.353Z,41.86
2018-06-12T15:19:08.703Z,41.72
2018-06-12T15:24:30.429Z,41.63
2018-06-12T15:26:58.787Z,42.27
2018-06-12T15:29:28.081Z,42.38
2018-06-12T15:31:56.373Z,42.15
2018-06-12T15:34:24.819Z,42.06
2018-06-12T15:36:53.103Z,41.77
2018-06-12T15:39:21.495Z,42.51
2018-06-12T15:41:50.063Z,41.80
2018-06-12T15:44:18.544Z,42.27
2018-06-12T15:46:46.932Z,42.59
2018-06-12T15:49:15.308Z,42.13
2018-06-12T15:51:43.791Z,42.32
2018-06-12T15:54:12.091Z,42.77
2018-06-12T15:56:40.353Z,43.07
2018-06-12T15:59:08.716Z,43.33
2018-06-12T16:01:37.339Z,42.89
2018-06-12T16:04:06.091Z,42.57
2018-06-12T16:06:34.649Z,42.77
2018-06-12T16:09:03.005Z,43.40
2018-06-12T16:11:31.581Z,43.36
2018-06-12T16:13:59.975Z,43.46
2018-06-12T16:16:28.570Z,43.29
2018-06-12T16:18:56.894Z,44.19
2018-06-12T16:21:25.285Z,44.30
2018-06-12T16:23:53.633Z,43.88
2018-06-12T16:26:22.003Z,43.83
2018-06-12T16:28:51.079Z,43.09
2018-06-12T16:31:24.725Z,42.61
2018-06-12T16:33:54.729Z,43.35
2018-06-12T16:36:23.314Z,44.24
2018-06-12T16:38:51.968Z,44.29
2018-06-12T16:41:26.106Z,43.79
2018-06-12T16:43:55.721Z,43.41
2018-06-12T16:46:26.465Z,43.58
2018-06-12T16:48:54.800Z,42.33
2018-06-12T16:51:23.237Z,43.36
2018-06-12T16:53:52.330Z,42.56
2018-06-12T16:56:20.766Z,42.24
2018-06-12T16:58:49.081Z,42.29
2018-06-12T17:01:17.547Z,42.91
2018-06-12T17:03:46.037Z,43.70
2018-06-12T17:06:14.439Z,44.25
2018-06-12T17:08:44.750Z,44.48
2018-06-12T17:11:13.285Z,44.55
2018-06-12T17:13:41.571Z,44.97
2018-06-12T17:16:09.941Z,44.47
2018-06-12T17:18:38.559Z,44.65
2018-06-12T17:21:20.662Z,45.12
2018-06-12T17:23:49.194Z,45.00
2018-06-12T17:26:17.606Z,45.21
2018-06-12T17:28:46.000Z,45.09
2018-06-12T17:31:14.695Z,44.67
2018-06-12T17:33:43.097Z,44.69
2018-06-12T17:36:11.520Z,45.01
2018-06-12T17:38:39.924Z,44.01
2018-06-12T17:41:08.509Z,44.56
2018-06-12T17:43:36.871Z,44.34
2018-06-12T17:46:05.399Z,43.95
2018-06-12T17:48:34.040Z,44.52
2018-06-12T17:51:02.441Z,45.76
2018-06-12T17:53:30.968Z,45.75
2018-06-12T17:55:59.394Z,46.43
2018-06-12T17:58:27.914Z,46.48
2018-06-12T18:00:56.250Z,46.42
2018-06-12T18:03:24.724Z,46.43
2018-06-12T18:05:53.088Z,47.22
2018-06-12T18:08:21.492Z,47.17
2018-06-12T18:10:59.341Z,47.06
2018-06-12T18:13:27.832Z,46.78
2018-06-12T18:15:56.396Z,46.22
2018-06-12T18:18:25.886Z,46.09
2018-06-12T18:20:54.550Z,46.32
2018-06-12T18:23:23.055Z,46.50
2018-06-12T18:25:51.977Z,45.65
2018-06-12T18:28:20.635Z,46.00
2018-06-12T18:30:49.984Z,46.46
2018-06-12T18:33:18.418Z,45.71
2018-06-12T18:35:47.820Z,46.21
2018-06-12T18:38:17.189Z,46.80
2018-06-12T18:40:50.770Z,46.46
2018-06-12T18:43:20.080Z,46.83
2018-06-12T18:45:48.401Z,46.48
2018-06-12T18:48:16.896Z,46.95
2018-06-12T18:50:50.292Z,46.81
2018-06-12T18:53:18.675Z,47.16
2018-06-12T18:55:47.219Z,47.35
2018-06-12T18:58:16.303Z,47.62
2018-06-12T19:00:44.831Z,47.94
2018-06-12T19:03:13.388Z,48.09
2018-06-12T19:05:41.791Z,47.52
2018-06-12T19:08:10.655Z,47.41
2018-06-12T19:10:48.712Z,47.79
2018-06-12T19:13:17.276Z,48.39
2018-06-12T19:15:46.230Z,48.30
2018-06-12T19:18:15.031Z,47.61
2018-06-12T19:20:48.603Z,47.61
2018-06-12T19:23:17.459Z,48.48
2018-06-12T19:25:46.221Z,47.86
2018-06-12T19:28:14.778Z,47.85
2018-06-12T19:30:43.411Z,48.06
2018-06-12T19:33:12.907Z,48.07
2018-06-12T19:35:41.923Z,48.17
2018-06-12T19:38:10.599Z,48.25
2018-06-12T19:40:39.907Z,48.35
2018-06-12T19:43:08.353Z,48.46
2018-06-12T19:45:39.551Z,48.08
2018-06-12T19:48:10.415Z,47.81
2018-06-12T19:50:41.329Z,47.99
2018-06-12T19:53:11.342Z,48.46
2018-06-12T19:55:41.703Z,48.51
2018-06-12T19:58:10.751Z,48.45
2018-06-12T20:00:39.662Z,48.11
2018-06-12T20:03:08.348Z,48.37
2018-06-12T20:05:36.870Z,48.41
2018-06-12T20:08:05.396Z,48.46
2018-06-12T20:10:34.014Z,48.35
2018-06-12T20:13:03.610Z,48.23
2018-06-12T20:15:32.025Z,48.57
2018-06-12T20:18:00.643Z,48.17
2018-06-12T20:20:29.371Z,48.48
2018-06-12T20:22:57.762Z,48.41
2018-06-12T20:25:26.335Z,48.26
2018-06-12T20:27:55.104Z,48.22
2018-06-12T20:33:16.555Z,48.29
2018-06-12T20:35:45.051Z,48.53
2018-06-12T20:38:13.571Z,48.60
2018-06-12T20:40:51.492Z,48.82
2018-06-12T20:43:20.041Z,49.11
2018-06-12T20:45:48.368Z,49.75
2018-06-12T20:48:17.283Z,49.56
2018-06-12T20:50:50.794Z,49.96
2018-06-12T20:53:19.223Z,49.57
2018-06-12T20:55:48.158Z,50.13
2018-06-12T20:58:16.947Z,50.65
2018-06-12T21:00:45.751Z,50.07
2018-06-12T21:03:14.447Z,50.06
2018-06-12T21:05:43.151Z,50.09
2018-06-12T21:08:11.784Z,50.46
2018-06-12T21:10:40.197Z,50.19
2018-06-12T21:13:09.075Z,50.53
2018-06-12T21:15:37.738Z,50.38
2018-06-12T21:18:06.055Z,51.23
2018-06-12T21:20:34.433Z,50.74
2018-06-12T21:23:02.745Z,51.56
2018-06-12T21:25:31.245Z,51.20
2018-06-12T21:27:59.554Z,51.69
2018-06-12T21:30:33.071Z,51.74
2018-06-12T21:33:01.442Z,51.50
2018-06-12T21:35:30.365Z,52.09
2018-06-12T21:37:58.752Z,51.71
2018-06-12T21:40:40.818Z,52.22
2018-06-12T21:43:09.090Z,52.49
2018-06-12T21:45:37.448Z,52.86
2018-06-12T21:48:05.780Z,52.84
2018-06-12T21:50:34.182Z,53.34
2018-06-12T21:53:02.753Z,53.70
2018-06-12T21:55:31.193Z,53.27
2018-06-12T21:58:00.032Z,53.47
2018-06-12T22:03:21.145Z,53.37
2018-06-12T22:05:49.499Z,53.83
2018-06-12T22:08:18.208Z,53.37
2018-06-12T22:10:51.636Z,53.71
2018-06-12T22:13:20.729Z,54.06
2018-06-12T22:15:49.140Z,53.15
2018-06-12T22:18:17.507Z,53.47
2018-06-12T22:23:57.225Z,53.52
2018-06-12T22:26:25.636Z,53.68
2018-06-12T22:28:54.719Z,53.47
2018-06-12T22:31:28.195Z,53.48
2018-06-12T22:33:58.292Z,53.90
2018-06-12T22:36:27.222Z,54.42
2018-06-12T22:38:55.527Z,53.86
2018-06-12T22:44:16.523Z,54.13
2018-06-12T22:46:46.865Z,54.01
2018-06-12T22:49:15.321Z,54.13
2018-06-12T22:51:43.621Z,54.04
2018-06-12T22:54:24.067Z,54.26
2018-06-12T22:56:53.825Z,53.73
2018-06-12T22:59:22.310Z,53.58
2018-06-12T23:05:05.984Z,54.25
2018-06-12T23:07:34.274Z,53.87
2018-06-12T23:13:00.542Z,53.67
2018-06-12T23:15:29.041Z,54.32
2018-06-12T23:17:57.727Z,53.66
2018-06-12T23:20:39.946Z,53.58
2018-06-12T23:23:08.468Z,53.96
2018-06-12T23:25:38.732Z,53.70
2018-06-12T23:28:07.057Z,53.32
2018-06-12T23:30:35.850Z,53.64
2018-06-12T23:33:04.154Z,53.69
2018-06-12T23:35:32.502Z,53.74
2018-06-12T23:38:02.352Z,53.52
2018-06-12T23:40:31.232Z,52.78
2018-06-12T23:43:01.446Z,53.16
2018-06-12T23:45:30.244Z,53.31
2018-06-12T23:47:58.766Z,53.60
2018-06-12T23:56:29.754Z,53.52
2018-06-12T23:59:01.255Z,53.82
